Chicago, Illinois
Traffic Map
Current Weather Conditions
Chicago, Illinois
Few Clouds
Few Clouds
39°
Feels Like: 32°
Wind Chill: 32° Ceiling: Unl
Heat Index: 39° Visibility: 10mi
Dew Point: 26° Wind: 10mph
Humidity: 60% Direction: 220° (SW)
Pressure: 29.91in Gusts: 0mph
Raw Report DataKMDW 161553Z 22009KT 10SM FEW150 FEW250 04/M03 A2991 RMK AO2 SLP137 T00391033
Traffic Incident Summary
Active as of:
Severity:
Category:
InformationThere was an issue retrieving the traffic information for this location. Please try a different location or try again shortly.
Advertisements